Time;durP1;ratioP1;P1;durP2;ratioP2;P2;SDS_P1;SDS_P2;PMS_P1;PMS_P2;Temp;Humidity;BMP_temperature;BMP_pressure;BME280_temperature;BME280_humidity;BME280_pressure;Samples;Min_cycle;Max_cycle;Signal;HPM_P1;HPM_P2
2023/03/18 00:00:10;;;;;;;1.20;0.30;;;13.30;1.00;;;;;;5046112;28;20445;-61
2023/03/18 00:02:37;;;;;;;0.55;0.30;;;13.30;1.00;;;;;;5016018;28;20427;-61
2023/03/18 00:05:06;;;;;;;0.90;0.40;;;13.30;1.00;;;;;;5016416;28;20439;-61
2023/03/18 00:07:34;;;;;;;0.60;0.30;;;13.30;1.00;;;;;;5015253;28;20460;-61
2023/03/18 00:10:02;;;;;;;0.60;0.30;;;13.20;1.00;;;;;;5028935;28;20540;-60
2023/03/18 00:12:32;;;;;;;1.00;0.40;;;13.20;1.00;;;;;;5055206;28;20429;-60
2023/03/18 00:15:01;;;;;;;1.70;0.40;;;13.10;1.00;;;;;;5054216;28;20717;-61
2023/03/18 00:17:28;;;;;;;1.00;0.30;;;13.10;1.00;;;;;;5057240;28;20426;-60
2023/03/18 00:19:56;;;;;;;1.10;0.40;;;13.00;1.00;;;;;;5045495;28;20475;-59
2023/03/18 00:22:23;;;;;;;1.40;0.40;;;13.00;1.00;;;;;;5054999;28;21050;-60
2023/03/18 00:24:51;;;;;;;1.60;0.50;;;13.00;1.00;;;;;;5056001;28;20445;-60
2023/03/18 00:27:18;;;;;;;0.70;0.40;;;12.90;1.00;;;;;;5048803;28;20440;-61
2023/03/18 00:29:48;;;;;;;1.00;0.40;;;12.90;1.00;;;;;;5052453;28;20528;-60
2023/03/18 00:32:17;;;;;;;0.70;0.50;;;12.80;1.00;;;;;;5055523;28;20452;-60
2023/03/18 00:34:44;;;;;;;0.60;0.30;;;12.80;1.00;;;;;;5056078;28;20433;-60
2023/03/18 00:37:28;;;;;;;1.60;0.40;;;12.80;1.00;;;;;;5039557;28;20531;-60
2023/03/18 00:39:56;;;;;;;0.93;0.40;;;12.80;1.00;;;;;;5044935;28;20950;-61
2023/03/18 00:42:24;;;;;;;0.70;0.40;;;12.70;1.00;;;;;;5055391;28;20893;-62
2023/03/18 00:44:52;;;;;;;0.60;0.30;;;12.70;1.00;;;;;;5056725;28;20525;-62
2023/03/18 00:47:21;;;;;;;0.90;0.40;;;12.70;1.00;;;;;;5045941;28;20440;-61
2023/03/18 00:49:48;;;;;;;0.60;0.30;;;12.70;1.00;;;;;;5056321;28;20497;-61
2023/03/18 00:52:15;;;;;;;0.80;0.40;;;12.70;1.00;;;;;;5057213;28;20456;-61
2023/03/18 00:54:42;;;;;;;0.70;0.40;;;12.70;1.00;;;;;;5050318;28;20882;-62
2023/03/18 00:57:10;;;;;;;0.80;0.40;;;12.60;1.00;;;;;;5052312;28;20425;-61
2023/03/18 00:59:37;;;;;;;0.60;0.40;;;12.60;1.00;;;;;;5055938;28;20436;-61
2023/03/18 01:05:28;;;;;;;0.90;0.40;;;12.70;1.00;;;;;;5035286;28;21038;-61
2023/03/18 01:07:55;;;;;;;0.70;0.40;;;12.70;1.00;;;;;;5055644;28;20886;-61
2023/03/18 01:10:22;;;;;;;0.90;0.40;;;12.60;1.00;;;;;;5055789;28;20421;-61
2023/03/18 01:12:49;;;;;;;0.63;0.30;;;12.60;1.00;;;;;;5056049;28;20429;-61
2023/03/18 01:15:18;;;;;;;0.60;0.38;;;12.60;1.00;;;;;;5041960;28;20437;-61
2023/03/18 01:17:45;;;;;;;0.70;0.40;;;12.60;1.00;;;;;;5054309;28;20430;-60
2023/03/18 01:20:15;;;;;;;1.50;0.30;;;12.60;1.00;;;;;;5055703;28;20429;-61
2023/03/18 01:22:44;;;;;;;0.60;0.30;;;12.70;1.00;;;;;;5055788;28;20906;-62
2023/03/18 01:25:15;;;;;;;0.60;0.30;;;12.70;1.00;;;;;;5014377;28;20799;-63
2023/03/18 01:27:43;;;;;;;1.50;0.30;;;12.80;1.00;;;;;;5016119;28;20440;-63
2023/03/18 01:30:12;;;;;;;0.80;0.30;;;12.80;1.00;;;;;;5015767;28;20788;-63
2023/03/18 01:32:40;;;;;;;0.60;0.35;;;12.80;1.00;;;;;;5020210;28;20442;-63
2023/03/18 01:35:07;;;;;;;0.70;0.40;;;12.80;1.00;;;;;;5055255;28;20438;-63
2023/03/18 01:37:34;;;;;;;1.00;0.40;;;12.80;1.00;;;;;;5055033;28;20432;-63
2023/03/18 01:40:03;;;;;;;0.60;0.40;;;12.80;1.00;;;;;;5055702;28;20413;-63
2023/03/18 01:42:30;;;;;;;0.70;0.30;;;12.80;1.00;;;;;;5045355;28;20448;-63
2023/03/18 01:45:16;;;;;;;0.80;0.50;;;12.70;1.00;;;;;;5055184;28;20805;-63
2023/03/18 01:47:45;;;;;;;1.00;0.40;;;12.70;1.00;;;;;;5055487;28;20445;-63
2023/03/18 01:50:14;;;;;;;1.00;0.30;;;12.70;1.00;;;;;;5053195;28;20429;-64
2023/03/18 01:52:43;;;;;;;0.65;0.32;;;12.60;1.00;;;;;;5049036;28;20546;-62
2023/03/18 01:55:14;;;;;;;0.60;0.30;;;12.70;1.00;;;;;;5055370;28;20498;-62
2023/03/18 01:57:42;;;;;;;1.10;0.30;;;12.70;1.00;;;;;;5055712;28;20490;-62
2023/03/18 02:00:11;;;;;;;0.57;0.30;;;12.60;1.00;;;;;;5045512;28;20797;-63
2023/03/18 02:02:40;;;;;;;0.60;0.30;;;12.70;1.00;;;;;;5055217;28;20432;-62
2023/03/18 02:05:11;;;;;;;1.85;0.40;;;12.60;1.00;;;;;;5054851;28;20507;-63
2023/03/18 02:07:41;;;;;;;0.70;0.30;;;12.60;1.00;;;;;;5055052;28;20500;-63
2023/03/18 02:10:13;;;;;;;0.73;0.40;;;12.60;1.00;;;;;;5034649;28;20466;-62
2023/03/18 02:12:44;;;;;;;0.80;0.40;;;12.60;1.00;;;;;;5034431;28;20570;-62
2023/03/18 02:15:15;;;;;;;0.60;0.30;;;12.60;1.00;;;;;;5017579;28;20531;-62
2023/03/18 02:17:45;;;;;;;1.10;0.40;;;12.50;1.00;;;;;;5012967;28;20754;-63
2023/03/18 02:20:21;;;;;;;1.20;0.50;;;12.60;1.00;;;;;;5045377;28;20798;-63
2023/03/18 02:22:51;;;;;;;2.13;0.60;;;12.60;1.00;;;;;;5052203;28;20429;-62
2023/03/18 02:25:33;;;;;;;1.20;0.40;;;12.60;1.00;;;;;;5051749;28;20428;-63
2023/03/18 02:28:04;;;;;;;0.60;0.30;;;12.60;1.00;;;;;;5033229;28;20465;-62
2023/03/18 02:30:35;;;;;;;0.70;0.30;;;12.60;1.00;;;;;;5013258;28;20432;-62
2023/03/18 02:33:02;;;;;;;0.80;0.30;;;12.60;1.00;;;;;;5013753;28;20785;-62
2023/03/18 02:35:31;;;;;;;1.33;0.40;;;12.60;1.00;;;;;;5014323;28;20482;-62
2023/03/18 02:37:58;;;;;;;1.00;0.30;;;12.50;1.00;;;;;;5042173;28;20438;-62
2023/03/18 02:40:27;;;;;;;0.82;0.40;;;12.50;1.00;;;;;;5054638;28;20432;-62
2023/03/18 02:42:56;;;;;;;0.60;0.40;;;12.50;1.00;;;;;;5053960;28;20461;-62
2023/03/18 02:45:38;;;;;;;0.75;0.40;;;12.50;1.00;;;;;;5046280;28;20441;-63
2023/03/18 02:48:08;;;;;;;1.00;0.40;;;12.40;1.00;;;;;;5018056;28;20468;-62
2023/03/18 02:50:35;;;;;;;1.00;0.40;;;12.40;1.00;;;;;;5018280;28;20428;-63
2023/03/18 02:53:04;;;;;;;0.70;0.30;;;12.40;1.00;;;;;;5019029;28;20432;-62
2023/03/18 02:55:31;;;;;;;1.17;0.40;;;12.50;1.00;;;;;;5033778;28;20437;-61
2023/03/18 02:57:59;;;;;;;0.73;0.30;;;12.50;1.00;;;;;;5058804;28;20472;-62
2023/03/18 03:00:28;;;;;;;0.85;0.47;;;12.40;1.00;;;;;;5058547;28;20425;-61
2023/03/18 03:02:55;;;;;;;0.60;0.30;;;12.40;1.00;;;;;;5058034;28;20723;-61
2023/03/18 03:05:22;;;;;;;1.52;0.50;;;12.40;1.00;;;;;;5045035;28;20432;-62
2023/03/18 03:07:49;;;;;;;0.82;0.40;;;12.40;1.00;;;;;;5058426;28;20433;-63
2023/03/18 03:10:16;;;;;;;0.60;0.40;;;12.40;1.00;;;;;;5058576;28;20425;-62
2023/03/18 03:12:44;;;;;;;0.90;0.47;;;12.30;1.00;;;;;;5052432;28;20455;-62
2023/03/18 03:15:12;;;;;;;0.85;0.30;;;12.30;1.00;;;;;;5053372;28;20429;-62
2023/03/18 03:17:40;;;;;;;0.70;0.30;;;12.30;1.00;;;;;;5058506;28;20531;-62
2023/03/18 03:20:08;;;;;;;0.70;0.30;;;12.20;1.00;;;;;;5056831;28;20745;-62
2023/03/18 03:22:36;;;;;;;0.60;0.30;;;12.20;1.00;;;;;;5045135;28;20448;-62
2023/03/18 03:25:04;;;;;;;0.75;0.40;;;12.20;1.00;;;;;;5056839;28;20421;-62
2023/03/18 03:27:31;;;;;;;0.65;0.40;;;12.10;1.00;;;;;;5056996;28;20432;-62
2023/03/18 03:29:58;;;;;;;0.60;0.30;;;12.10;1.00;;;;;;5055509;28;20425;-62
2023/03/18 03:32:27;;;;;;;0.70;0.35;;;12.00;1.00;;;;;;5045997;28;20445;-62
2023/03/18 03:34:56;;;;;;;0.50;0.30;;;12.00;1.00;;;;;;5056666;28;20852;-62
2023/03/18 03:37:23;;;;;;;0.60;0.30;;;12.00;1.00;;;;;;5056693;28;20425;-64
2023/03/18 03:39:50;;;;;;;0.60;0.30;;;11.90;1.00;;;;;;5055561;28;20424;-62
2023/03/18 03:42:17;;;;;;;1.00;0.30;;;11.90;1.00;;;;;;5047987;28;20440;-62
2023/03/18 03:44:44;;;;;;;0.80;0.40;;;11.90;1.00;;;;;;5055336;28;20487;-62
2023/03/18 03:47:12;;;;;;;0.60;0.40;;;11.90;1.00;;;;;;5056618;28;20487;-62
2023/03/18 03:49:39;;;;;;;0.80;0.50;;;11.80;1.00;;;;;;5048280;28;20512;-63
2023/03/18 03:52:07;;;;;;;0.60;0.30;;;11.80;1.00;;;;;;5016958;28;20424;-63
2023/03/18 03:54:34;;;;;;;0.70;0.40;;;11.70;1.00;;;;;;5016853;28;20428;-62
2023/03/18 03:57:01;;;;;;;1.20;0.40;;;11.70;1.00;;;;;;5017171;28;20459;-62
2023/03/18 03:59:28;;;;;;;0.68;0.40;;;11.70;1.00;;;;;;5027764;28;20515;-62
2023/03/18 04:01:55;;;;;;;0.80;0.40;;;11.70;1.00;;;;;;5057219;28;20429;-62
2023/03/18 04:04:22;;;;;;;0.60;0.30;;;11.60;1.00;;;;;;5056303;28;20829;-62
2023/03/18 04:06:50;;;;;;;0.60;0.30;;;11.50;1.00;;;;;;5058010;28;20444;-63
2023/03/18 04:09:18;;;;;;;0.60;0.40;;;11.50;1.00;;;;;;5045026;28;20483;-62
2023/03/18 04:11:45;;;;;;;0.80;0.30;;;11.50;1.00;;;;;;5057244;28;20436;-63
2023/03/18 04:14:12;;;;;;;1.05;0.40;;;11.40;1.00;;;;;;5056292;28;20723;-62
2023/03/18 04:16:39;;;;;;;0.82;0.30;;;11.40;1.00;;;;;;5051015;28;20433;-63
2023/03/18 04:19:07;;;;;;;1.02;0.40;;;11.40;1.00;;;;;;5050665;28;20421;-63
2023/03/18 04:21:35;;;;;;;0.90;0.30;;;11.40;1.00;;;;;;5057463;28;20435;-62
2023/03/18 04:24:03;;;;;;;0.80;0.40;;;11.40;1.00;;;;;;5056384;28;20421;-62
2023/03/18 04:26:32;;;;;;;0.70;0.40;;;11.30;1.00;;;;;;5046953;28;20888;-62
2023/03/18 04:28:59;;;;;;;2.15;0.30;;;11.30;1.00;;;;;;5056496;28;20473;-62
2023/03/18 04:31:26;;;;;;;0.65;0.30;;;11.30;1.00;;;;;;5056665;28;20436;-63
2023/03/18 04:33:53;;;;;;;0.60;0.30;;;11.30;1.00;;;;;;5057244;28;20421;-63
2023/03/18 04:36:20;;;;;;;0.60;0.40;;;11.30;1.00;;;;;;5044699;28;20448;-63
2023/03/18 04:38:47;;;;;;;0.60;0.30;;;11.30;1.00;;;;;;5056017;28;20417;-63
2023/03/18 04:41:14;;;;;;;0.65;0.30;;;11.30;1.00;;;;;;5055010;28;20859;-62
2023/03/18 04:43:43;;;;;;;0.60;0.30;;;11.20;1.00;;;;;;5056182;28;20422;-64
2023/03/18 04:46:10;;;;;;;0.60;0.30;;;11.20;1.00;;;;;;5034010;28;20912;-63
2023/03/18 04:48:37;;;;;;;0.60;0.30;;;11.20;1.00;;;;;;5036926;28;20521;-62
2023/03/18 04:51:07;;;;;;;0.90;0.50;;;11.20;1.00;;;;;;5037421;28;20475;-63
2023/03/18 04:53:34;;;;;;;0.73;0.40;;;11.10;1.00;;;;;;5034480;28;20442;-63
2023/03/18 04:56:02;;;;;;;0.80;0.30;;;11.10;1.00;;;;;;5052160;28;21007;-63
2023/03/18 04:58:30;;;;;;;0.60;0.30;;;11.10;1.00;;;;;;5056286;28;20496;-62
2023/03/18 05:00:58;;;;;;;0.70;0.40;;;11.00;1.00;;;;;;5054677;28;20523;-62
2023/03/18 05:03:25;;;;;;;0.60;0.30;;;11.00;1.00;;;;;;5043750;28;20722;-63
2023/03/18 05:05:52;;;;;;;1.38;0.40;;;11.00;1.00;;;;;;5055426;28;20429;-62
2023/03/18 05:08:20;;;;;;;0.68;0.30;;;10.90;1.00;;;;;;5055474;28;20426;-62
2023/03/18 05:10:47;;;;;;;0.60;0.30;;;10.90;1.00;;;;;;5054599;28;20437;-63
2023/03/18 05:13:15;;;;;;;1.83;0.30;;;10.90;1.00;;;;;;5042604;28;20555;-62
2023/03/18 05:15:42;;;;;;;1.60;0.40;;;10.90;1.00;;;;;;5053554;28;20520;-62
2023/03/18 05:18:11;;;;;;;0.60;0.30;;;10.90;1.00;;;;;;5054557;28;20514;-62
2023/03/18 05:20:39;;;;;;;0.80;0.30;;;10.80;1.00;;;;;;5050477;28;20475;-63
2023/03/18 05:23:06;;;;;;;0.70;0.30;;;10.80;1.00;;;;;;5049336;28;20429;-64
2023/03/18 05:25:33;;;;;;;0.80;0.40;;;10.80;1.00;;;;;;5054312;28;20424;-61
2023/03/18 05:28:01;;;;;;;1.20;0.40;;;10.80;1.00;;;;;;5055919;28;20424;-61
2023/03/18 05:30:28;;;;;;;0.70;0.40;;;10.80;1.00;;;;;;5054493;28;20869;-62
2023/03/18 05:32:55;;;;;;;0.65;0.30;;;10.80;1.00;;;;;;5055943;28;20440;-63
2023/03/18 05:35:23;;;;;;;1.20;0.30;;;10.80;1.00;;;;;;5055184;28;20414;-63
2023/03/18 05:37:50;;;;;;;1.70;0.30;;;10.90;1.00;;;;;;5053820;28;20749;-62
2023/03/18 05:40:18;;;;;;;0.50;0.30;;;10.90;1.00;;;;;;5054154;28;20414;-60
2023/03/18 05:42:45;;;;;;;0.90;0.35;;;10.90;1.00;;;;;;5054149;28;20441;-59
2023/03/18 05:45:12;;;;;;;0.57;0.25;;;10.90;1.00;;;;;;5054354;28;20764;-59
2023/03/18 05:47:39;;;;;;;1.50;0.40;;;11.00;1.00;;;;;;5054937;28;20425;-62
2023/03/18 05:50:07;;;;;;;0.70;0.30;;;10.90;1.00;;;;;;5054284;28;20437;-63
2023/03/18 05:52:35;;;;;;;1.00;0.40;;;10.90;1.00;;;;;;5054736;28;20872;-63
2023/03/18 05:55:02;;;;;;;0.60;0.30;;;11.00;1.00;;;;;;5055093;28;20483;-65
2023/03/18 05:57:29;;;;;;;0.90;0.57;;;10.90;1.00;;;;;;5054546;28;20425;-64
2023/03/18 05:59:57;;;;;;;1.90;0.40;;;10.90;1.00;;;;;;5055018;28;20450;-64
2023/03/18 06:02:25;;;;;;;1.50;0.30;;;10.90;1.00;;;;;;5054493;28;20437;-64
2023/03/18 06:04:52;;;;;;;0.80;0.40;;;10.90;1.00;;;;;;5054923;28;20427;-64
2023/03/18 06:07:20;;;;;;;0.68;0.35;;;10.90;1.00;;;;;;5055008;28;20852;-65
2023/03/18 06:09:49;;;;;;;0.68;0.30;;;10.80;1.00;;;;;;5055403;28;20496;-64
2023/03/18 06:12:16;;;;;;;0.60;0.30;;;10.80;1.00;;;;;;5055051;28;20433;-56
2023/03/18 06:14:43;;;;;;;0.80;0.30;;;10.80;1.00;;;;;;5054555;28;20863;-60
2023/03/18 06:17:10;;;;;;;1.60;0.30;;;10.80;1.00;;;;;;5053466;28;20433;-59
2023/03/18 06:19:37;;;;;;;0.95;0.30;;;10.80;1.00;;;;;;5054534;28;20420;-60
2023/03/18 06:22:04;;;;;;;0.60;0.30;;;10.70;1.00;;;;;;5054157;28;20860;-60
2023/03/18 06:24:32;;;;;;;0.80;0.40;;;10.70;1.00;;;;;;5055609;28;20447;-59
2023/03/18 06:27:00;;;;;;;0.60;0.40;;;10.70;1.00;;;;;;5055466;28;20460;-60
2023/03/18 06:29:27;;;;;;;0.60;0.40;;;10.70;1.00;;;;;;5054588;28;20432;-60
2023/03/18 06:31:54;;;;;;;1.10;0.40;;;10.70;1.00;;;;;;5054914;28;20436;-60
2023/03/18 06:34:21;;;;;;;0.70;0.40;;;10.70;1.00;;;;;;5053355;28;20425;-58
2023/03/18 06:36:48;;;;;;;2.92;0.32;;;10.80;1.00;;;;;;5055036;28;20856;-59
2023/03/18 06:39:15;;;;;;;1.92;0.50;;;10.80;1.00;;;;;;5054458;28;20420;-60
2023/03/18 06:41:42;;;;;;;1.50;0.43;;;10.80;1.00;;;;;;5053784;28;20440;-60
2023/03/18 06:44:12;;;;;;;1.10;0.50;;;10.70;1.00;;;;;;5055053;28;20817;-60
2023/03/18 06:46:39;;;;;;;1.20;0.40;;;10.70;1.00;;;;;;5054361;28;20860;-60
2023/03/18 06:49:06;;;;;;;0.80;0.50;;;10.70;1.00;;;;;;5054830;28;20718;-61
2023/03/18 06:51:33;;;;;;;1.00;0.60;;;10.70;1.00;;;;;;5053805;28;20429;-61
2023/03/18 06:54:00;;;;;;;1.00;0.50;;;10.70;1.00;;;;;;5054186;28;20852;-60
2023/03/18 06:56:27;;;;;;;0.80;0.50;;;10.70;1.00;;;;;;5037122;28;20458;-60
2023/03/18 06:58:54;;;;;;;1.58;0.50;;;10.70;1.00;;;;;;5033937;28;20484;-60
2023/03/18 07:01:23;;;;;;;0.80;0.43;;;10.60;1.00;;;;;;5033104;28;20497;-60
2023/03/18 07:03:50;;;;;;;0.82;0.50;;;10.50;1.00;;;;;;5031169;28;20870;-60
2023/03/18 07:06:17;;;;;;;0.70;0.40;;;10.60;1.00;;;;;;5013392;28;20440;-60
2023/03/18 07:08:45;;;;;;;0.70;0.40;;;10.70;1.00;;;;;;5014333;28;20424;-60
2023/03/18 07:11:13;;;;;;;0.90;0.52;;;10.70;15.00;;;;;;5012902;28;20448;-59
2023/03/18 07:13:40;;;;;;;0.90;0.50;;;10.80;14.20;;;;;;5017835;28;20894;-60
2023/03/18 07:16:07;;;;;;;1.02;0.45;;;10.90;24.20;;;;;;5032739;28;20441;-60
2023/03/18 07:18:36;;;;;;;1.10;0.50;;;11.00;1.00;;;;;;5033061;28;20495;-59
2023/03/18 07:21:04;;;;;;;2.28;0.60;;;11.10;1.00;;;;;;5032866;28;20770;-59
2023/03/18 07:23:31;;;;;;;2.22;0.55;;;11.10;1.00;;;;;;5034037;28;20742;-59
2023/03/18 07:25:58;;;;;;;2.10;0.40;;;11.10;1.00;;;;;;5033760;28;20431;-59
2023/03/18 07:28:25;;;;;;;0.95;0.40;;;11.20;1.00;;;;;;5033976;28;20427;-58
2023/03/18 07:30:53;;;;;;;1.40;0.50;;;11.30;1.00;;;;;;5033192;28;20875;-59
2023/03/18 07:33:20;;;;;;;0.80;0.50;;;11.50;1.00;;;;;;5035053;28;20425;-59
2023/03/18 07:35:49;;;;;;;0.65;0.40;;;11.50;1.00;;;;;;5036379;28;20422;-60
2023/03/18 07:38:16;;;;;;;1.23;0.40;;;11.60;1.00;;;;;;5036936;28;20423;-60
2023/03/18 07:40:44;;;;;;;1.10;0.40;;;11.80;1.00;;;;;;5036574;28;20431;-59
2023/03/18 07:43:11;;;;;;;0.90;0.50;;;11.90;1.00;;;;;;5036887;28;20870;-59
2023/03/18 07:45:38;;;;;;;0.70;0.40;;;12.00;1.00;;;;;;5036628;28;20434;-59
2023/03/18 07:48:05;;;;;;;1.00;0.40;;;12.20;1.00;;;;;;5036601;28;20846;-59
2023/03/18 07:50:32;;;;;;;0.70;0.30;;;12.30;1.00;;;;;;5036810;28;20477;-59
2023/03/18 07:53:01;;;;;;;1.20;0.50;;;12.40;1.00;;;;;;5036661;28;20453;-58
2023/03/18 07:55:28;;;;;;;1.00;0.38;;;12.40;1.00;;;;;;5036724;28;20843;-58
2023/03/18 07:57:55;;;;;;;1.80;0.40;;;12.50;1.00;;;;;;5036048;28;20430;-58
2023/03/18 08:00:23;;;;;;;0.50;0.30;;;12.60;1.00;;;;;;5036807;28;20905;-57
2023/03/18 08:02:50;;;;;;;0.90;0.40;;;12.70;1.00;;;;;;5037242;28;20439;-58
2023/03/18 08:05:18;;;;;;;0.90;0.30;;;12.80;1.00;;;;;;5035868;28;20426;-59
2023/03/18 08:07:45;;;;;;;0.80;0.30;;;13.00;1.00;;;;;;5036557;28;20464;-58
2023/03/18 08:10:14;;;;;;;0.50;0.30;;;13.10;1.00;;;;;;5034544;28;20439;-58
2023/03/18 08:12:41;;;;;;;1.00;0.40;;;13.30;1.00;;;;;;5035718;28;20426;-59
2023/03/18 08:15:10;;;;;;;0.70;0.40;;;13.40;1.00;;;;;;5035134;28;20526;-57
2023/03/18 08:17:37;;;;;;;0.70;0.30;;;13.50;1.00;;;;;;5035001;28;20481;-57
2023/03/18 08:20:05;;;;;;;1.25;0.50;;;13.60;1.00;;;;;;5035844;28;20450;-57
2023/03/18 08:22:32;;;;;;;0.60;0.30;;;13.70;1.00;;;;;;5036066;28;20427;-58
2023/03/18 08:25:00;;;;;;;0.60;0.30;;;13.90;1.00;;;;;;5035692;28;20462;-58
2023/03/18 08:27:28;;;;;;;1.30;0.30;;;14.00;1.00;;;;;;5029010;28;20443;-57
2023/03/18 08:29:55;;;;;;;0.60;0.30;;;14.00;1.00;;;;;;5035836;28;20986;-57
2023/03/18 08:32:23;;;;;;;0.60;0.30;;;14.10;1.00;;;;;;5033674;28;20445;-57
2023/03/18 08:34:50;;;;;;;0.80;0.30;;;14.20;1.00;;;;;;5029435;28;20431;-61
2023/03/18 08:37:17;;;;;;;0.80;0.30;;;14.30;1.00;;;;;;5033180;28;20435;-57
2023/03/18 08:39:44;;;;;;;0.80;0.30;;;14.40;1.00;;;;;;5035917;28;20423;-58
2023/03/18 08:42:11;;;;;;;0.50;0.30;;;14.40;1.00;;;;;;5028951;28;20442;-56
2023/03/18 08:44:40;;;;;;;1.75;0.30;;;14.60;1.00;;;;;;5030943;28;20439;-57
2023/03/18 08:47:08;;;;;;;0.95;0.30;;;14.60;1.00;;;;;;5032269;28;20446;-59
2023/03/18 08:49:35;;;;;;;0.50;0.30;;;14.80;1.00;;;;;;5033845;28;20466;-56
2023/03/18 08:52:03;;;;;;;0.90;0.30;;;14.90;1.00;;;;;;5028443;28;20443;-58
2023/03/18 08:54:30;;;;;;;1.50;0.30;;;14.90;1.00;;;;;;5025350;28;20451;-58
2023/03/18 08:56:59;;;;;;;0.70;0.30;;;15.00;1.00;;;;;;5022287;28;20917;-58
2023/03/18 08:59:26;;;;;;;0.70;0.30;;;15.00;1.00;;;;;;5030904;28;20517;-58
2023/03/18 09:01:54;;;;;;;0.82;0.40;;;15.10;1.00;;;;;;5035468;28;20431;-60
2023/03/18 09:04:22;;;;;;;0.57;0.30;;;15.20;1.00;;;;;;5023210;28;20452;-58
2023/03/18 09:06:49;;;;;;;0.60;0.30;;;15.30;1.00;;;;;;5021733;28;21080;-57
2023/03/18 09:09:16;;;;;;;0.70;0.30;;;15.30;1.00;;;;;;5019624;28;20453;-58
2023/03/18 09:11:45;;;;;;;0.80;0.30;;;15.40;1.00;;;;;;5031638;28;20548;-58
2023/03/18 09:14:12;;;;;;;0.60;0.30;;;15.50;1.00;;;;;;5027912;28;21531;-57
2023/03/18 09:16:40;;;;;;;0.80;0.40;;;15.50;1.00;;;;;;5028166;28;20844;-57
2023/03/18 09:19:08;;;;;;;0.70;0.30;;;15.50;1.00;;;;;;5027177;28;20457;-58
2023/03/18 09:21:36;;;;;;;1.00;0.30;;;15.60;1.00;;;;;;5028381;28;20450;-58
2023/03/18 09:24:03;;;;;;;0.70;0.20;;;15.60;1.00;;;;;;5027942;28;20530;-58
2023/03/18 09:26:30;;;;;;;0.70;0.30;;;15.60;1.00;;;;;;5030948;28;20439;-59
2023/03/18 09:28:57;;;;;;;0.60;0.30;;;15.70;1.00;;;;;;5021888;28;20439;-57
2023/03/18 09:31:24;;;;;;;0.90;0.30;;;15.80;1.00;;;;;;5025520;28;20439;-59
2023/03/18 09:33:51;;;;;;;0.73;0.30;;;15.80;1.00;;;;;;5025832;28;20435;-57
2023/03/18 09:36:20;;;;;;;0.75;0.40;;;15.90;1.00;;;;;;5022009;28;20450;-59
2023/03/18 09:38:47;;;;;;;1.20;0.70;;;16.20;1.00;;;;;;5029964;28;20469;-58
2023/03/18 09:41:28;;;;;;;0.60;0.30;;;16.30;1.00;;;;;;5023408;28;20767;-57
2023/03/18 09:44:09;;;;;;;0.70;0.40;;;16.30;1.00;;;;;;5025428;28;20535;-57
2023/03/18 09:46:49;;;;;;;1.10;0.40;;;16.40;1.00;;;;;;5021812;28;20450;-58
2023/03/18 09:49:32;;;;;;;0.70;0.35;;;16.60;1.00;;;;;;5027150;28;20497;-58
2023/03/18 09:52:17;;;;;;;0.60;0.30;;;16.70;1.00;;;;;;5025513;28;20443;-58
2023/03/18 09:54:52;;;;;;;0.88;0.30;;;16.70;1.00;;;;;;5029344;28;20909;-58
2023/03/18 09:57:24;;;;;;;0.60;0.30;;;16.70;1.00;;;;;;5020008;28;20446;-59
2023/03/18 09:59:55;;;;;;;0.50;0.30;;;16.70;1.00;;;;;;5029489;28;20445;-59
2023/03/18 10:02:29;;;;;;;0.63;0.30;;;16.80;1.00;;;;;;5031107;28;20740;-58
2023/03/18 10:05:00;;;;;;;0.50;0.30;;;17.00;1.00;;;;;;5025029;28;20494;-58
2023/03/18 10:07:34;;;;;;;9.38;5.85;;;17.10;1.00;;;;;;5025251;28;20918;-58
2023/03/18 10:10:06;;;;;;;0.70;0.30;;;17.10;1.00;;;;;;5021260;28;20430;-59
2023/03/18 10:12:36;;;;;;;1.10;0.30;;;17.20;1.00;;;;;;5021541;28;20444;-59
2023/03/18 10:15:13;;;;;;;1.00;0.30;;;17.20;1.00;;;;;;5021898;28;20431;-58
2023/03/18 10:17:45;;;;;;;1.23;0.30;;;17.40;1.00;;;;;;5029206;28;21143;-58
2023/03/18 10:20:31;;;;;;;0.63;0.35;;;17.60;1.00;;;;;;5031045;28;20430;-58
2023/03/18 10:23:12;;;;;;;0.70;0.30;;;18.00;1.00;;;;;;5021636;28;20449;-59
2023/03/18 10:25:43;;;;;;;0.60;0.30;;;18.40;1.00;;;;;;5030201;28;20435;-58
2023/03/18 10:28:30;;;;;;;0.80;0.40;;;18.40;1.00;;;;;;5028594;28;20438;-58
2023/03/18 10:31:07;;;;;;;0.80;0.30;;;18.30;1.00;;;;;;5030275;28;20450;-59
2023/03/18 10:33:42;;;;;;;2.10;0.40;;;18.50;1.00;;;;;;5026831;28;20435;-58
2023/03/18 10:36:13;;;;;;;0.80;0.30;;;18.70;1.00;;;;;;5020951;28;20565;-59
2023/03/18 10:38:44;;;;;;;1.02;0.50;;;18.50;1.00;;;;;;5027694;28;20472;-59
2023/03/18 10:41:17;;;;;;;0.73;0.30;;;18.70;1.00;;;;;;5023263;28;20772;-58
2023/03/18 10:43:46;;;;;;;0.60;0.30;;;19.00;1.00;;;;;;5020443;28;20453;-59
2023/03/18 10:46:16;;;;;;;1.30;0.30;;;18.70;1.00;;;;;;5025649;28;20434;-57
2023/03/18 10:48:46;;;;;;;0.60;0.30;;;18.70;1.00;;;;;;5020294;28;21757;-57
2023/03/18 10:51:19;;;;;;;1.30;0.50;;;18.70;1.00;;;;;;5025617;28;20443;-57
2023/03/18 10:53:55;;;;;;;0.70;0.40;;;19.20;1.00;;;;;;5021531;28;20445;-62
2023/03/18 10:56:22;;;;;;;0.68;0.40;;;19.50;1.00;;;;;;5023024;28;20451;-59
2023/03/18 10:58:51;;;;;;;0.60;0.30;;;19.70;1.00;;;;;;5024985;28;20889;-58
2023/03/18 11:01:23;;;;;;;0.90;0.30;;;19.70;1.00;;;;;;5027141;28;20435;-58
2023/03/18 11:03:54;;;;;;;0.70;0.30;;;18.90;1.00;;;;;;5023152;28;20450;-58
2023/03/18 11:06:27;;;;;;;0.50;0.30;;;18.70;1.00;;;;;;5028317;28;20431;-58
2023/03/18 11:09:07;;;;;;;1.30;0.30;;;18.50;1.00;;;;;;5029753;28;20489;-59
2023/03/18 11:11:35;;;;;;;1.27;0.30;;;18.90;1.00;;;;;;5027852;28;20449;-59
2023/03/18 11:14:05;;;;;;;1.20;0.30;;;19.40;1.00;;;;;;5020400;28;20603;-62
2023/03/18 11:16:41;;;;;;;0.63;0.40;;;19.60;1.00;;;;;;5032432;28;20438;-59
2023/03/18 11:19:28;;;;;;;1.17;0.30;;;19.60;1.00;;;;;;5032165;28;20439;-60
2023/03/18 11:22:05;;;;;;;0.50;0.30;;;20.00;1.00;;;;;;5021972;28;20508;-58
2023/03/18 11:24:41;;;;;;;0.70;0.30;;;20.10;1.00;;;;;;5014989;28;20836;-59
2023/03/18 11:27:29;;;;;;;0.70;0.30;;;20.30;1.00;;;;;;5017478;28;20443;-58
2023/03/18 11:29:58;;;;;;;1.70;0.30;;;19.90;1.00;;;;;;5035240;28;20423;-59
2023/03/18 11:32:28;;;;;;;1.80;0.30;;;19.70;1.00;;;;;;5033005;28;20492;-59
2023/03/18 11:34:57;;;;;;;1.50;0.30;;;19.80;1.00;;;;;;5036726;28;20484;-58
2023/03/18 11:37:29;;;;;;;1.15;0.40;;;20.00;1.00;;;;;;5034982;28;20946;-58
2023/03/18 11:40:17;;;;;;;0.70;0.45;;;20.40;1.00;;;;;;5025765;28;20440;-57
2023/03/18 11:42:45;;;;;;;0.70;0.20;;;20.70;1.00;;;;;;5017077;28;20428;-59
2023/03/18 11:45:30;;;;;;;0.70;0.30;;;20.70;1.00;;;;;;5030060;28;20443;-59
2023/03/18 11:47:58;;;;;;;0.70;0.30;;;20.40;1.00;;;;;;5036619;28;20427;-59
2023/03/18 11:50:30;;;;;;;0.50;0.20;;;20.50;1.00;;;;;;5031456;28;20450;-60
2023/03/18 11:53:02;;;;;;;0.65;0.30;;;20.30;1.00;;;;;;5036402;28;20920;-60
2023/03/18 11:55:39;;;;;;;1.20;0.30;;;20.10;1.00;;;;;;5034891;28;20527;-59
2023/03/18 11:58:39;;;;;;;0.70;0.20;;;20.10;1.00;;;;;;5032861;28;20419;-60
2023/03/18 12:01:13;;;;;;;0.70;0.30;;;20.30;1.00;;;;;;5028275;28;20860;-59
2023/03/18 12:04:14;;;;;;;0.47;0.20;;;20.30;1.00;;;;;;5014597;28;20856;-59
2023/03/18 12:06:46;;;;;;;1.10;0.90;;;20.30;1.00;;;;;;5024226;28;20438;-60
2023/03/18 12:09:21;;;;;;;0.50;0.20;;;20.50;1.00;;;;;;5021692;28;20427;-60
2023/03/18 12:12:00;;;;;;;0.68;0.30;;;20.60;1.00;;;;;;5024512;28;20450;-58
2023/03/18 12:14:35;;;;;;;0.75;0.30;;;20.60;1.00;;;;;;5029697;28;20478;-60
2023/03/18 12:17:18;;;;;;;0.50;0.30;;;20.60;1.00;;;;;;5029739;28;21522;-60
2023/03/18 12:20:24;;;;;;;0.50;0.28;;;20.50;1.00;;;;;;5031346;28;20430;-60
2023/03/18 12:23:03;;;;;;;1.60;0.30;;;20.60;1.00;;;;;;5026335;28;20484;-60
2023/03/18 12:25:38;;;;;;;0.90;0.30;;;21.20;1.00;;;;;;5034316;28;20874;-59
2023/03/18 12:28:18;;;;;;;0.50;0.30;;;21.50;1.00;;;;;;5033722;28;20461;-59
2023/03/18 12:31:08;;;;;;;0.60;0.20;;;21.30;1.00;;;;;;5033241;28;20423;-59
2023/03/18 12:33:55;;;;;;;2.10;0.90;;;20.90;1.00;;;;;;5020909;28;20952;-59
2023/03/18 12:36:34;;;;;;;0.70;0.30;;;21.00;1.00;;;;;;5034314;28;20536;-59
2023/03/18 12:39:42;;;;;;;0.60;0.30;;;21.00;1.00;;;;;;5034233;28;20476;-60
2023/03/18 12:42:13;;;;;;;0.70;0.40;;;21.00;1.00;;;;;;5021271;28;20469;-60
2023/03/18 12:44:57;;;;;;;1.70;1.00;;;21.10;1.00;;;;;;5014122;28;20441;-60
2023/03/18 12:47:30;;;;;;;1.08;0.40;;;21.10;1.00;;;;;;5016288;28;20472;-60
2023/03/18 12:50:01;;;;;;;0.50;0.30;;;20.90;1.00;;;;;;5027060;28;20438;-60
2023/03/18 12:52:37;;;;;;;0.60;0.30;;;20.80;1.00;;;;;;5028279;28;20878;-59
2023/03/18 12:55:18;;;;;;;0.80;0.30;;;20.80;1.00;;;;;;5026531;28;20973;-59
2023/03/18 12:57:51;;;;;;;1.90;0.50;;;21.00;1.00;;;;;;5033134;28;20454;-59
2023/03/18 13:00:27;;;;;;;1.10;0.40;;;21.40;1.00;;;;;;5012202;28;20444;-59
2023/03/18 13:03:02;;;;;;;0.88;0.30;;;21.60;1.00;;;;;;5014251;28;20562;-59
2023/03/18 13:05:40;;;;;;;0.50;0.20;;;21.80;1.00;;;;;;5028675;28;20464;-59
2023/03/18 13:08:28;;;;;;;1.02;0.30;;;21.60;1.00;;;;;;5031431;28;20443;-59
2023/03/18 13:11:03;;;;;;;2.10;0.30;;;21.50;1.00;;;;;;5019343;28;20442;-59
2023/03/18 13:13:35;;;;;;;1.00;0.30;;;21.20;1.00;;;;;;5013739;28;20710;-60
2023/03/18 13:16:06;;;;;;;0.80;0.30;;;21.00;1.00;;;;;;5028697;28;20866;-59